Forside
METAR-TAF:

METAR-TAF

Lufthavne :

New Richmond Regional Airport

New Richmond, Wisconsin, USA

Breddekreds: 45-08-54N, længdekreds: 092-32-17W, højde: 304 m

Aktuelle vejr

Denne rapport blev lavet for 19 minutter siden, kl. 12:35 UTC
Vind 5 kt fra sydøst
Temperatur 17°C
Fugtighed 77%
Tryk 1017 hPa
Sigt: 16.1 km
skyfri

METAR: KRNH 121235Z AUTO 13005KT 10SM CLR 17/13 A3003 RMK AO2 T01720134

Tid: 07:54 (12:54 UTC)

Vejrudsigter

Denne rapport blev lavet for 1 time og 34 minutter siden, kl. 11:20 UTC
Foreløbig gælder fra 12 på 12 UTC til 13 på 12 UTC
Vind 4 kt fra østsydøst
Sigt: 10 km
Nogle få skyer i en højde af 25000 ft
Fra 12 på 1600 UTC
Vind 8 kt fra sydsydøst
Sigt: 10 km
Spredte skyer i en højde af 15000 ft

TAF: KRNH 121120Z 1212/1312 12004KT P6SM FEW250 FM121600 15008KT P6SM SCT150

Vejrobservationer og prognoser fra mere end 4000 lufthavne (METAR og TAF).

De gule og røde prikker repræsenterer de meteorologiske stationer.

Flyt musen over at se navnet på stationen.

Så klik over at se vejr observationer og prognoser.

At skifte det kort: Klik på de grønne knapper med et sort kors for at zoome ind; på den grønne knap med en bindestreg for at zoome ud; eller på de grønne pile for tilstødende kort.


METAR-TAF: